sensor_id;sensor_type;location;lat;lon;timestamp;P1;durP1;ratioP1;P2;durP2;ratioP2
9597;SDS011;4837;50.890;4.724;2023-05-07T00:00:59;6.72;;;5.93;;
9597;SDS011;4837;50.890;4.724;2023-05-07T00:03:26;9.48;;;6.28;;
9597;SDS011;4837;50.890;4.724;2023-05-07T00:05:52;10.60;;;6.35;;
9597;SDS011;4837;50.890;4.724;2023-05-07T00:08:18;7.72;;;5.43;;
9597;SDS011;4837;50.890;4.724;2023-05-07T00:10:45;8.35;;;6.13;;
9597;SDS011;4837;50.890;4.724;2023-05-07T00:13:11;7.00;;;5.80;;
9597;SDS011;4837;50.890;4.724;2023-05-07T00:15:37;12.20;;;6.40;;
9597;SDS011;4837;50.890;4.724;2023-05-07T00:18:04;9.32;;;6.03;;
9597;SDS011;4837;50.890;4.724;2023-05-07T00:20:30;7.05;;;5.88;;
9597;SDS011;4837;50.890;4.724;2023-05-07T00:22:56;9.25;;;5.82;;
9597;SDS011;4837;50.890;4.724;2023-05-07T00:25:22;7.78;;;6.22;;
9597;SDS011;4837;50.890;4.724;2023-05-07T00:27:48;9.85;;;6.32;;
9597;SDS011;4837;50.890;4.724;2023-05-07T00:30:14;7.03;;;6.13;;
9597;SDS011;4837;50.890;4.724;2023-05-07T00:32:41;10.13;;;6.65;;
9597;SDS011;4837;50.890;4.724;2023-05-07T00:35:07;9.10;;;6.05;;
9597;SDS011;4837;50.890;4.724;2023-05-07T00:37:33;8.00;;;6.47;;
9597;SDS011;4837;50.890;4.724;2023-05-07T00:39:59;8.63;;;6.90;;
9597;SDS011;4837;50.890;4.724;2023-05-07T00:42:28;9.48;;;7.10;;
9597;SDS011;4837;50.890;4.724;2023-05-07T00:44:54;8.65;;;7.13;;
9597;SDS011;4837;50.890;4.724;2023-05-07T00:47:20;10.57;;;7.72;;
9597;SDS011;4837;50.890;4.724;2023-05-07T00:49:46;9.18;;;6.93;;
9597;SDS011;4837;50.890;4.724;2023-05-07T00:52:16;9.02;;;7.07;;
9597;SDS011;4837;50.890;4.724;2023-05-07T00:54:43;8.73;;;6.82;;
9597;SDS011;4837;50.890;4.724;2023-05-07T00:57:09;7.05;;;6.35;;
9597;SDS011;4837;50.890;4.724;2023-05-07T00:59:36;9.85;;;6.88;;
9597;SDS011;4837;50.890;4.724;2023-05-07T01:02:02;9.75;;;7.35;;
9597;SDS011;4837;50.890;4.724;2023-05-07T01:04:28;8.43;;;7.60;;
9597;SDS011;4837;50.890;4.724;2023-05-07T01:06:55;8.30;;;7.07;;
9597;SDS011;4837;50.890;4.724;2023-05-07T01:09:23;6.97;;;6.22;;
9597;SDS011;4837;50.890;4.724;2023-05-07T01:11:50;6.15;;;5.55;;
9597;SDS011;4837;50.890;4.724;2023-05-07T01:14:17;6.93;;;6.22;;
9597;SDS011;4837;50.890;4.724;2023-05-07T01:16:43;7.95;;;5.75;;
9597;SDS011;4837;50.890;4.724;2023-05-07T01:19:09;8.85;;;6.07;;
9597;SDS011;4837;50.890;4.724;2023-05-07T01:21:42;9.80;;;7.35;;
9597;SDS011;4837;50.890;4.724;2023-05-07T01:24:10;9.50;;;7.63;;
9597;SDS011;4837;50.890;4.724;2023-05-07T01:26:37;9.65;;;8.57;;
9597;SDS011;4837;50.890;4.724;2023-05-07T01:29:03;9.52;;;8.55;;
9597;SDS011;4837;50.890;4.724;2023-05-07T01:31:29;8.73;;;7.85;;
9597;SDS011;4837;50.890;4.724;2023-05-07T01:33:55;10.15;;;7.63;;
9597;SDS011;4837;50.890;4.724;2023-05-07T01:36:22;8.65;;;7.43;;
9597;SDS011;4837;50.890;4.724;2023-05-07T01:38:51;10.85;;;6.75;;
9597;SDS011;4837;50.890;4.724;2023-05-07T01:41:18;9.00;;;8.10;;
9597;SDS011;4837;50.890;4.724;2023-05-07T01:43:44;9.38;;;7.97;;
9597;SDS011;4837;50.890;4.724;2023-05-07T01:46:12;9.93;;;9.02;;
9597;SDS011;4837;50.890;4.724;2023-05-07T01:48:38;10.50;;;8.43;;
9597;SDS011;4837;50.890;4.724;2023-05-07T01:51:05;10.50;;;9.23;;
9597;SDS011;4837;50.890;4.724;2023-05-07T01:53:38;10.70;;;9.25;;
9597;SDS011;4837;50.890;4.724;2023-05-07T01:56:05;10.13;;;9.23;;
9597;SDS011;4837;50.890;4.724;2023-05-07T01:58:31;12.20;;;10.23;;
9597;SDS011;4837;50.890;4.724;2023-05-07T02:00:58;10.77;;;9.60;;
9597;SDS011;4837;50.890;4.724;2023-05-07T02:03:24;10.40;;;9.27;;
9597;SDS011;4837;50.890;4.724;2023-05-07T02:05:50;10.13;;;7.65;;
9597;SDS011;4837;50.890;4.724;2023-05-07T02:08:16;10.45;;;7.18;;
9597;SDS011;4837;50.890;4.724;2023-05-07T02:10:42;10.80;;;8.98;;
9597;SDS011;4837;50.890;4.724;2023-05-07T02:13:09;11.80;;;9.73;;
9597;SDS011;4837;50.890;4.724;2023-05-07T02:15:35;11.05;;;9.23;;
9597;SDS011;4837;50.890;4.724;2023-05-07T02:18:02;9.95;;;8.95;;
9597;SDS011;4837;50.890;4.724;2023-05-07T02:20:28;10.55;;;9.38;;
9597;SDS011;4837;50.890;4.724;2023-05-07T02:22:54;9.05;;;8.07;;
9597;SDS011;4837;50.890;4.724;2023-05-07T02:25:20;10.43;;;8.85;;
9597;SDS011;4837;50.890;4.724;2023-05-07T02:27:47;11.88;;;8.93;;
9597;SDS011;4837;50.890;4.724;2023-05-07T02:30:13;10.30;;;9.10;;
9597;SDS011;4837;50.890;4.724;2023-05-07T02:32:39;9.23;;;8.32;;
9597;SDS011;4837;50.890;4.724;2023-05-07T02:35:05;10.57;;;8.55;;
9597;SDS011;4837;50.890;4.724;2023-05-07T02:37:31;10.10;;;8.40;;
9597;SDS011;4837;50.890;4.724;2023-05-07T02:39:57;9.50;;;8.10;;
9597;SDS011;4837;50.890;4.724;2023-05-07T02:42:24;9.18;;;8.27;;
9597;SDS011;4837;50.890;4.724;2023-05-07T02:44:50;9.90;;;8.20;;
9597;SDS011;4837;50.890;4.724;2023-05-07T02:47:16;9.52;;;8.57;;
9597;SDS011;4837;50.890;4.724;2023-05-07T02:49:42;10.07;;;9.07;;
9597;SDS011;4837;50.890;4.724;2023-05-07T02:52:08;10.93;;;9.60;;
9597;SDS011;4837;50.890;4.724;2023-05-07T02:54:34;9.75;;;8.85;;
9597;SDS011;4837;50.890;4.724;2023-05-07T02:57:00;11.32;;;10.23;;
9597;SDS011;4837;50.890;4.724;2023-05-07T02:59:27;11.88;;;10.23;;
9597;SDS011;4837;50.890;4.724;2023-05-07T03:01:53;11.43;;;10.30;;
9597;SDS011;4837;50.890;4.724;2023-05-07T03:04:19;12.18;;;10.68;;
9597;SDS011;4837;50.890;4.724;2023-05-07T03:06:45;12.68;;;11.00;;
9597;SDS011;4837;50.890;4.724;2023-05-07T03:09:11;11.55;;;10.45;;
9597;SDS011;4837;50.890;4.724;2023-05-07T03:11:37;14.50;;;11.43;;
9597;SDS011;4837;50.890;4.724;2023-05-07T03:14:04;11.65;;;10.45;;
9597;SDS011;4837;50.890;4.724;2023-05-07T03:16:30;12.75;;;10.55;;
9597;SDS011;4837;50.890;4.724;2023-05-07T03:18:56;13.35;;;10.80;;
9597;SDS011;4837;50.890;4.724;2023-05-07T03:21:22;11.70;;;10.50;;
9597;SDS011;4837;50.890;4.724;2023-05-07T03:23:48;12.90;;;10.77;;
9597;SDS011;4837;50.890;4.724;2023-05-07T03:26:14;11.52;;;10.32;;
9597;SDS011;4837;50.890;4.724;2023-05-07T03:28:40;13.13;;;10.15;;
9597;SDS011;4837;50.890;4.724;2023-05-07T03:31:06;13.23;;;10.30;;
9597;SDS011;4837;50.890;4.724;2023-05-07T03:33:33;12.85;;;11.45;;
9597;SDS011;4837;50.890;4.724;2023-05-07T03:36:00;11.52;;;9.90;;
9597;SDS011;4837;50.890;4.724;2023-05-07T03:38:26;12.32;;;11.02;;
9597;SDS011;4837;50.890;4.724;2023-05-07T03:40:52;11.50;;;10.40;;
9597;SDS011;4837;50.890;4.724;2023-05-07T03:43:18;12.85;;;11.48;;
9597;SDS011;4837;50.890;4.724;2023-05-07T03:45:44;12.30;;;11.00;;
9597;SDS011;4837;50.890;4.724;2023-05-07T03:48:10;11.88;;;10.77;;
9597;SDS011;4837;50.890;4.724;2023-05-07T03:50:37;13.20;;;11.73;;
9597;SDS011;4837;50.890;4.724;2023-05-07T03:53:03;13.38;;;11.95;;
9597;SDS011;4837;50.890;4.724;2023-05-07T03:55:29;12.85;;;11.50;;
9597;SDS011;4837;50.890;4.724;2023-05-07T03:57:55;13.88;;;12.35;;
9597;SDS011;4837;50.890;4.724;2023-05-07T04:00:21;12.55;;;11.45;;
9597;SDS011;4837;50.890;4.724;2023-05-07T04:02:48;15.43;;;12.50;;
9597;SDS011;4837;50.890;4.724;2023-05-07T04:05:14;13.65;;;12.30;;
9597;SDS011;4837;50.890;4.724;2023-05-07T04:07:40;16.15;;;13.32;;
9597;SDS011;4837;50.890;4.724;2023-05-07T04:10:07;14.15;;;12.82;;
9597;SDS011;4837;50.890;4.724;2023-05-07T04:12:33;14.55;;;13.00;;
9597;SDS011;4837;50.890;4.724;2023-05-07T04:14:59;16.02;;;14.43;;
9597;SDS011;4837;50.890;4.724;2023-05-07T04:17:25;14.23;;;12.82;;
9597;SDS011;4837;50.890;4.724;2023-05-07T04:19:51;15.93;;;14.20;;
9597;SDS011;4837;50.890;4.724;2023-05-07T04:22:17;16.23;;;13.90;;
9597;SDS011;4837;50.890;4.724;2023-05-07T04:24:43;17.23;;;14.73;;
9597;SDS011;4837;50.890;4.724;2023-05-07T04:27:09;16.27;;;14.57;;
9597;SDS011;4837;50.890;4.724;2023-05-07T04:29:35;16.63;;;14.93;;
9597;SDS011;4837;50.890;4.724;2023-05-07T04:32:01;16.60;;;14.85;;
9597;SDS011;4837;50.890;4.724;2023-05-07T04:34:27;16.67;;;14.98;;
9597;SDS011;4837;50.890;4.724;2023-05-07T04:36:54;17.42;;;14.80;;
9597;SDS011;4837;50.890;4.724;2023-05-07T04:39:20;17.83;;;15.95;;
9597;SDS011;4837;50.890;4.724;2023-05-07T04:41:46;15.45;;;14.02;;
9597;SDS011;4837;50.890;4.724;2023-05-07T04:44:12;16.10;;;14.38;;
9597;SDS011;4837;50.890;4.724;2023-05-07T04:46:38;16.67;;;14.95;;
9597;SDS011;4837;50.890;4.724;2023-05-07T04:49:04;15.85;;;14.23;;
9597;SDS011;4837;50.890;4.724;2023-05-07T04:51:30;16.27;;;14.52;;
9597;SDS011;4837;50.890;4.724;2023-05-07T04:53:58;18.15;;;14.50;;
9597;SDS011;4837;50.890;4.724;2023-05-07T04:56:24;15.63;;;14.23;;
9597;SDS011;4837;50.890;4.724;2023-05-07T04:58:50;15.40;;;13.82;;
9597;SDS011;4837;50.890;4.724;2023-05-07T05:01:16;16.02;;;14.55;;
9597;SDS011;4837;50.890;4.724;2023-05-07T05:03:42;15.50;;;13.80;;
9597;SDS011;4837;50.890;4.724;2023-05-07T05:06:08;13.73;;;12.27;;
9597;SDS011;4837;50.890;4.724;2023-05-07T05:08:34;15.02;;;13.05;;
9597;SDS011;4837;50.890;4.724;2023-05-07T05:11:01;15.18;;;13.73;;
9597;SDS011;4837;50.890;4.724;2023-05-07T05:13:27;13.40;;;12.05;;
9597;SDS011;4837;50.890;4.724;2023-05-07T05:15:53;14.05;;;11.60;;
9597;SDS011;4837;50.890;4.724;2023-05-07T05:18:20;12.85;;;11.68;;
9597;SDS011;4837;50.890;4.724;2023-05-07T05:20:46;12.63;;;11.45;;
9597;SDS011;4837;50.890;4.724;2023-05-07T05:23:12;14.27;;;12.77;;
9597;SDS011;4837;50.890;4.724;2023-05-07T05:25:38;13.45;;;12.05;;
9597;SDS011;4837;50.890;4.724;2023-05-07T05:28:05;13.38;;;12.07;;
9597;SDS011;4837;50.890;4.724;2023-05-07T05:30:31;14.55;;;13.05;;
9597;SDS011;4837;50.890;4.724;2023-05-07T05:32:57;14.52;;;12.98;;
9597;SDS011;4837;50.890;4.724;2023-05-07T05:35:23;14.45;;;13.05;;
9597;SDS011;4837;50.890;4.724;2023-05-07T05:37:49;14.30;;;12.77;;
9597;SDS011;4837;50.890;4.724;2023-05-07T05:40:15;16.30;;;13.77;;
9597;SDS011;4837;50.890;4.724;2023-05-07T05:42:42;14.48;;;12.95;;
9597;SDS011;4837;50.890;4.724;2023-05-07T05:45:08;14.82;;;12.73;;
9597;SDS011;4837;50.890;4.724;2023-05-07T05:47:34;14.35;;;12.85;;
9597;SDS011;4837;50.890;4.724;2023-05-07T05:50:00;14.60;;;13.18;;
9597;SDS011;4837;50.890;4.724;2023-05-07T05:52:26;14.05;;;12.65;;
9597;SDS011;4837;50.890;4.724;2023-05-07T05:54:53;14.50;;;13.00;;
9597;SDS011;4837;50.890;4.724;2023-05-07T05:57:19;15.15;;;12.60;;
9597;SDS011;4837;50.890;4.724;2023-05-07T05:59:46;14.25;;;12.73;;
9597;SDS011;4837;50.890;4.724;2023-05-07T06:02:12;13.35;;;11.85;;
9597;SDS011;4837;50.890;4.724;2023-05-07T06:04:38;13.18;;;11.88;;
9597;SDS011;4837;50.890;4.724;2023-05-07T06:07:04;13.10;;;11.40;;
9597;SDS011;4837;50.890;4.724;2023-05-07T06:09:30;14.35;;;11.43;;
9597;SDS011;4837;50.890;4.724;2023-05-07T06:11:56;13.45;;;11.10;;
9597;SDS011;4837;50.890;4.724;2023-05-07T06:14:22;12.27;;;10.70;;
9597;SDS011;4837;50.890;4.724;2023-05-07T06:16:49;15.40;;;11.35;;
9597;SDS011;4837;50.890;4.724;2023-05-07T06:19:15;13.77;;;11.13;;
9597;SDS011;4837;50.890;4.724;2023-05-07T06:21:43;12.55;;;10.65;;
9597;SDS011;4837;50.890;4.724;2023-05-07T06:24:09;12.50;;;11.30;;
9597;SDS011;4837;50.890;4.724;2023-05-07T06:26:35;14.98;;;11.57;;
9597;SDS011;4837;50.890;4.724;2023-05-07T06:29:01;12.13;;;10.95;;
9597;SDS011;4837;50.890;4.724;2023-05-07T06:31:29;12.77;;;11.40;;
9597;SDS011;4837;50.890;4.724;2023-05-07T06:33:58;11.70;;;10.50;;
9597;SDS011;4837;50.890;4.724;2023-05-07T06:36:25;11.98;;;10.68;;
9597;SDS011;4837;50.890;4.724;2023-05-07T06:38:51;12.75;;;10.63;;
9597;SDS011;4837;50.890;4.724;2023-05-07T06:41:17;14.80;;;10.93;;
9597;SDS011;4837;50.890;4.724;2023-05-07T06:43:43;10.55;;;9.45;;
9597;SDS011;4837;50.890;4.724;2023-05-07T06:46:10;11.02;;;8.93;;
9597;SDS011;4837;50.890;4.724;2023-05-07T06:48:36;8.40;;;6.63;;
9597;SDS011;4837;50.890;4.724;2023-05-07T06:51:02;9.23;;;6.55;;
9597;SDS011;4837;50.890;4.724;2023-05-07T06:53:28;9.13;;;6.93;;
9597;SDS011;4837;50.890;4.724;2023-05-07T06:55:55;12.95;;;6.72;;
9597;SDS011;4837;50.890;4.724;2023-05-07T06:58:22;11.38;;;6.20;;
9597;SDS011;4837;50.890;4.724;2023-05-07T07:00:48;9.95;;;5.90;;
9597;SDS011;4837;50.890;4.724;2023-05-07T07:03:14;8.23;;;5.63;;
9597;SDS011;4837;50.890;4.724;2023-05-07T07:05:41;8.30;;;5.75;;
9597;SDS011;4837;50.890;4.724;2023-05-07T07:08:07;9.75;;;6.07;;
9597;SDS011;4837;50.890;4.724;2023-05-07T07:10:33;9.80;;;5.38;;
9597;SDS011;4837;50.890;4.724;2023-05-07T07:12:59;8.43;;;5.47;;
9597;SDS011;4837;50.890;4.724;2023-05-07T07:15:25;8.43;;;5.85;;
9597;SDS011;4837;50.890;4.724;2023-05-07T07:17:52;8.75;;;5.72;;
9597;SDS011;4837;50.890;4.724;2023-05-07T07:20:18;8.82;;;5.35;;
9597;SDS011;4837;50.890;4.724;2023-05-07T07:22:44;7.88;;;5.18;;
9597;SDS011;4837;50.890;4.724;2023-05-07T07:25:10;9.55;;;5.38;;
9597;SDS011;4837;50.890;4.724;2023-05-07T07:27:37;10.75;;;5.10;;
9597;SDS011;4837;50.890;4.724;2023-05-07T07:30:05;9.80;;;5.00;;
9597;SDS011;4837;50.890;4.724;2023-05-07T07:32:31;12.02;;;5.70;;
9597;SDS011;4837;50.890;4.724;2023-05-07T07:34:58;8.43;;;5.07;;
9597;SDS011;4837;50.890;4.724;2023-05-07T07:37:27;9.75;;;4.45;;
9597;SDS011;4837;50.890;4.724;2023-05-07T07:39:54;8.75;;;4.85;;
9597;SDS011;4837;50.890;4.724;2023-05-07T07:42:20;9.02;;;4.03;;
9597;SDS011;4837;50.890;4.724;2023-05-07T07:44:47;8.73;;;4.07;;
9597;SDS011;4837;50.890;4.724;2023-05-07T07:47:13;8.27;;;4.13;;
9597;SDS011;4837;50.890;4.724;2023-05-07T07:49:39;8.57;;;3.90;;
9597;SDS011;4837;50.890;4.724;2023-05-07T07:52:05;9.65;;;4.13;;
9597;SDS011;4837;50.890;4.724;2023-05-07T07:54:31;6.93;;;3.85;;
9597;SDS011;4837;50.890;4.724;2023-05-07T07:56:58;8.40;;;3.90;;
9597;SDS011;4837;50.890;4.724;2023-05-07T07:59:24;6.50;;;3.83;;
9597;SDS011;4837;50.890;4.724;2023-05-07T08:01:50;8.75;;;4.07;;
9597;SDS011;4837;50.890;4.724;2023-05-07T08:04:18;10.10;;;4.95;;
9597;SDS011;4837;50.890;4.724;2023-05-07T08:06:44;7.82;;;5.25;;
9597;SDS011;4837;50.890;4.724;2023-05-07T08:09:11;10.10;;;4.70;;
9597;SDS011;4837;50.890;4.724;2023-05-07T08:11:38;8.57;;;4.72;;
9597;SDS011;4837;50.890;4.724;2023-05-07T08:14:04;8.50;;;4.40;;
9597;SDS011;4837;50.890;4.724;2023-05-07T08:16:30;7.32;;;4.20;;
9597;SDS011;4837;50.890;4.724;2023-05-07T08:18:56;8.20;;;4.43;;
9597;SDS011;4837;50.890;4.724;2023-05-07T08:21:22;9.88;;;4.22;;
9597;SDS011;4837;50.890;4.724;2023-05-07T08:23:49;5.97;;;4.10;;
9597;SDS011;4837;50.890;4.724;2023-05-07T08:26:15;7.47;;;3.90;;
9597;SDS011;4837;50.890;4.724;2023-05-07T08:28:41;7.65;;;3.70;;
9597;SDS011;4837;50.890;4.724;2023-05-07T08:31:07;6.32;;;3.45;;
9597;SDS011;4837;50.890;4.724;2023-05-07T08:33:33;9.15;;;3.90;;
9597;SDS011;4837;50.890;4.724;2023-05-07T08:35:59;8.43;;;3.60;;
9597;SDS011;4837;50.890;4.724;2023-05-07T08:38:25;9.07;;;3.65;;
9597;SDS011;4837;50.890;4.724;2023-05-07T08:40:51;7.50;;;4.20;;
9597;SDS011;4837;50.890;4.724;2023-05-07T08:43:18;5.82;;;3.67;;
9597;SDS011;4837;50.890;4.724;2023-05-07T08:45:45;7.80;;;3.97;;
9597;SDS011;4837;50.890;4.724;2023-05-07T08:48:15;7.63;;;3.85;;
9597;SDS011;4837;50.890;4.724;2023-05-07T08:50:42;8.15;;;4.00;;
9597;SDS011;4837;50.890;4.724;2023-05-07T08:53:08;6.65;;;4.10;;
9597;SDS011;4837;50.890;4.724;2023-05-07T08:55:34;6.15;;;4.03;;
9597;SDS011;4837;50.890;4.724;2023-05-07T08:58:00;6.93;;;3.60;;
9597;SDS011;4837;50.890;4.724;2023-05-07T09:00:27;4.85;;;4.00;;
9597;SDS011;4837;50.890;4.724;2023-05-07T09:02:53;5.28;;;3.58;;
9597;SDS011;4837;50.890;4.724;2023-05-07T09:05:19;7.68;;;3.80;;
9597;SDS011;4837;50.890;4.724;2023-05-07T09:07:46;6.60;;;3.58;;
9597;SDS011;4837;50.890;4.724;2023-05-07T09:10:12;5.65;;;3.53;;
9597;SDS011;4837;50.890;4.724;2023-05-07T09:12:39;7.63;;;3.70;;
9597;SDS011;4837;50.890;4.724;2023-05-07T09:15:06;6.20;;;4.05;;
9597;SDS011;4837;50.890;4.724;2023-05-07T09:17:32;5.32;;;3.67;;
9597;SDS011;4837;50.890;4.724;2023-05-07T09:20:02;5.20;;;3.55;;
9597;SDS011;4837;50.890;4.724;2023-05-07T09:22:32;6.93;;;3.58;;
9597;SDS011;4837;50.890;4.724;2023-05-07T09:24:59;6.50;;;3.90;;
9597;SDS011;4837;50.890;4.724;2023-05-07T09:27:25;6.80;;;3.90;;
9597;SDS011;4837;50.890;4.724;2023-05-07T09:29:51;6.22;;;3.95;;
9597;SDS011;4837;50.890;4.724;2023-05-07T09:32:17;9.32;;;3.92;;
9597;SDS011;4837;50.890;4.724;2023-05-07T09:34:43;6.35;;;4.05;;
9597;SDS011;4837;50.890;4.724;2023-05-07T09:37:10;8.95;;;3.58;;
9597;SDS011;4837;50.890;4.724;2023-05-07T09:39:43;4.38;;;3.28;;
9597;SDS011;4837;50.890;4.724;2023-05-07T09:42:09;7.30;;;3.83;;
9597;SDS011;4837;50.890;4.724;2023-05-07T09:44:36;6.45;;;3.58;;
9597;SDS011;4837;50.890;4.724;2023-05-07T09:47:04;4.78;;;3.42;;
9597;SDS011;4837;50.890;4.724;2023-05-07T09:49:30;4.63;;;3.58;;
9597;SDS011;4837;50.890;4.724;2023-05-07T09:51:58;5.82;;;3.47;;
9597;SDS011;4837;50.890;4.724;2023-05-07T09:54:25;5.35;;;3.53;;
9597;SDS011;4837;50.890;4.724;2023-05-07T09:56:54;6.35;;;3.55;;
9597;SDS011;4837;50.890;4.724;2023-05-07T09:59:21;7.60;;;3.45;;
9597;SDS011;4837;50.890;4.724;2023-05-07T10:01:48;6.40;;;3.72;;
9597;SDS011;4837;50.890;4.724;2023-05-07T10:04:14;5.70;;;3.35;;
9597;SDS011;4837;50.890;4.724;2023-05-07T10:06:41;4.95;;;3.70;;
9597;SDS011;4837;50.890;4.724;2023-05-07T10:09:08;6.07;;;3.75;;
9597;SDS011;4837;50.890;4.724;2023-05-07T10:11:36;6.32;;;3.47;;
9597;SDS011;4837;50.890;4.724;2023-05-07T10:14:03;7.05;;;4.20;;
9597;SDS011;4837;50.890;4.724;2023-05-07T10:16:34;5.65;;;3.88;;
9597;SDS011;4837;50.890;4.724;2023-05-07T10:19:04;5.72;;;3.50;;
9597;SDS011;4837;50.890;4.724;2023-05-07T10:21:31;4.95;;;3.42;;
9597;SDS011;4837;50.890;4.724;2023-05-07T10:24:05;8.05;;;3.47;;
9597;SDS011;4837;50.890;4.724;2023-05-07T10:26:33;4.50;;;3.47;;
9597;SDS011;4837;50.890;4.724;2023-05-07T10:29:14;5.03;;;3.10;;
9597;SDS011;4837;50.890;4.724;2023-05-07T10:34:22;5.32;;;3.00;;
9597;SDS011;4837;50.890;4.724;2023-05-07T10:36:48;4.93;;;3.20;;
9597;SDS011;4837;50.890;4.724;2023-05-07T10:39:15;6.22;;;2.90;;
9597;SDS011;4837;50.890;4.724;2023-05-07T10:41:41;5.68;;;3.08;;
9597;SDS011;4837;50.890;4.724;2023-05-07T10:44:07;5.45;;;3.67;;
9597;SDS011;4837;50.890;4.724;2023-05-07T10:46:34;5.97;;;3.50;;
9597;SDS011;4837;50.890;4.724;2023-05-07T10:51:31;5.97;;;3.17;;
9597;SDS011;4837;50.890;4.724;2023-05-07T10:54:31;7.38;;;3.40;;
9597;SDS011;4837;50.890;4.724;2023-05-07T10:56:50;5.20;;;3.28;;
9597;SDS011;4837;50.890;4.724;2023-05-07T11:01:49;5.75;;;2.63;;
9597;SDS011;4837;50.890;4.724;2023-05-07T11:04:16;6.88;;;2.53;;
9597;SDS011;4837;50.890;4.724;2023-05-07T11:15:07;4.30;;;2.50;;
9597;SDS011;4837;50.890;4.724;2023-05-07T11:17:34;4.68;;;2.70;;
9597;SDS011;4837;50.890;4.724;2023-05-07T11:20:03;5.88;;;2.70;;
9597;SDS011;4837;50.890;4.724;2023-05-07T11:24:59;5.88;;;2.90;;
9597;SDS011;4837;50.890;4.724;2023-05-07T11:27:26;4.88;;;2.22;;
9597;SDS011;4837;50.890;4.724;2023-05-07T11:29:55;6.70;;;2.50;;
9597;SDS011;4837;50.890;4.724;2023-05-07T11:32:25;4.68;;;2.63;;
9597;SDS011;4837;50.890;4.724;2023-05-07T11:34:52;3.72;;;2.10;;
9597;SDS011;4837;50.890;4.724;2023-05-07T11:37:19;5.32;;;2.00;;
9597;SDS011;4837;50.890;4.724;2023-05-07T11:39:45;3.45;;;1.70;;
9597;SDS011;4837;50.890;4.724;2023-05-07T11:42:30;5.25;;;2.10;;
9597;SDS011;4837;50.890;4.724;2023-05-07T11:44:57;4.55;;;2.25;;
9597;SDS011;4837;50.890;4.724;2023-05-07T11:47:24;6.93;;;2.20;;
9597;SDS011;4837;50.890;4.724;2023-05-07T11:49:51;3.83;;;2.25;;
9597;SDS011;4837;50.890;4.724;2023-05-07T11:52:17;4.07;;;2.25;;
9597;SDS011;4837;50.890;4.724;2023-05-07T11:57:16;5.90;;;2.22;;
9597;SDS011;4837;50.890;4.724;2023-05-07T11:59:42;3.42;;;2.40;;
9597;SDS011;4837;50.890;4.724;2023-05-07T12:02:17;4.75;;;2.08;;
9597;SDS011;4837;50.890;4.724;2023-05-07T12:04:43;5.15;;;2.20;;
9597;SDS011;4837;50.890;4.724;2023-05-07T12:07:13;6.13;;;2.08;;
9597;SDS011;4837;50.890;4.724;2023-05-07T12:09:39;4.63;;;2.30;;
9597;SDS011;4837;50.890;4.724;2023-05-07T12:12:06;5.65;;;2.60;;
9597;SDS011;4837;50.890;4.724;2023-05-07T12:14:32;5.22;;;2.42;;
9597;SDS011;4837;50.890;4.724;2023-05-07T12:17:01;4.95;;;2.17;;
9597;SDS011;4837;50.890;4.724;2023-05-07T12:19:28;5.13;;;2.80;;
9597;SDS011;4837;50.890;4.724;2023-05-07T12:21:55;3.38;;;2.60;;
9597;SDS011;4837;50.890;4.724;2023-05-07T12:24:21;5.20;;;2.70;;
9597;SDS011;4837;50.890;4.724;2023-05-07T12:26:48;4.15;;;2.20;;
9597;SDS011;4837;50.890;4.724;2023-05-07T12:29:14;4.00;;;1.55;;
9597;SDS011;4837;50.890;4.724;2023-05-07T12:31:41;3.70;;;1.73;;
9597;SDS011;4837;50.890;4.724;2023-05-07T12:34:07;2.72;;;1.50;;
9597;SDS011;4837;50.890;4.724;2023-05-07T12:36:37;3.90;;;1.77;;
9597;SDS011;4837;50.890;4.724;2023-05-07T12:39:04;1.80;;;1.15;;
9597;SDS011;4837;50.890;4.724;2023-05-07T12:41:31;3.35;;;1.60;;
9597;SDS011;4837;50.890;4.724;2023-05-07T12:44:03;2.97;;;1.70;;
9597;SDS011;4837;50.890;4.724;2023-05-07T12:46:30;6.88;;;2.42;;
9597;SDS011;4837;50.890;4.724;2023-05-07T12:48:56;2.72;;;1.85;;
9597;SDS011;4837;50.890;4.724;2023-05-07T12:51:22;2.85;;;1.70;;
9597;SDS011;4837;50.890;4.724;2023-05-07T12:53:48;4.00;;;1.77;;
9597;SDS011;4837;50.890;4.724;2023-05-07T12:56:15;4.15;;;1.88;;
9597;SDS011;4837;50.890;4.724;2023-05-07T12:58:41;2.92;;;2.08;;
9597;SDS011;4837;50.890;4.724;2023-05-07T13:01:08;5.88;;;2.10;;
9597;SDS011;4837;50.890;4.724;2023-05-07T13:03:35;2.92;;;1.85;;
9597;SDS011;4837;50.890;4.724;2023-05-07T13:06:02;2.75;;;1.77;;
9597;SDS011;4837;50.890;4.724;2023-05-07T13:08:33;4.05;;;2.08;;
9597;SDS011;4837;50.890;4.724;2023-05-07T13:11:00;4.75;;;2.08;;
9597;SDS011;4837;50.890;4.724;2023-05-07T13:13:29;3.65;;;1.83;;
9597;SDS011;4837;50.890;4.724;2023-05-07T13:15:55;4.80;;;2.00;;
9597;SDS011;4837;50.890;4.724;2023-05-07T13:18:21;3.47;;;2.00;;
9597;SDS011;4837;50.890;4.724;2023-05-07T13:20:47;3.28;;;1.77;;
9597;SDS011;4837;50.890;4.724;2023-05-07T13:23:13;4.30;;;1.83;;
9597;SDS011;4837;50.890;4.724;2023-05-07T13:25:40;4.25;;;2.00;;
9597;SDS011;4837;50.890;4.724;2023-05-07T13:28:06;3.28;;;2.00;;
9597;SDS011;4837;50.890;4.724;2023-05-07T13:30:32;4.82;;;2.20;;
9597;SDS011;4837;50.890;4.724;2023-05-07T13:32:58;2.92;;;1.85;;
9597;SDS011;4837;50.890;4.724;2023-05-07T13:35:24;5.55;;;2.22;;
9597;SDS011;4837;50.890;4.724;2023-05-07T13:37:50;4.47;;;2.10;;
9597;SDS011;4837;50.890;4.724;2023-05-07T13:40:17;4.32;;;2.05;;
9597;SDS011;4837;50.890;4.724;2023-05-07T13:42:47;4.68;;;2.10;;
9597;SDS011;4837;50.890;4.724;2023-05-07T13:45:13;6.38;;;2.70;;
9597;SDS011;4837;50.890;4.724;2023-05-07T13:47:42;3.78;;;2.50;;
9597;SDS011;4837;50.890;4.724;2023-05-07T13:50:09;4.00;;;2.38;;
9597;SDS011;4837;50.890;4.724;2023-05-07T13:52:36;4.95;;;2.80;;
9597;SDS011;4837;50.890;4.724;2023-05-07T13:55:03;5.10;;;2.33;;
9597;SDS011;4837;50.890;4.724;2023-05-07T13:57:29;5.30;;;2.47;;
9597;SDS011;4837;50.890;4.724;2023-05-07T13:59:55;4.65;;;2.45;;
9597;SDS011;4837;50.890;4.724;2023-05-07T14:02:21;5.72;;;2.35;;
9597;SDS011;4837;50.890;4.724;2023-05-07T14:04:47;3.63;;;2.28;;
9597;SDS011;4837;50.890;4.724;2023-05-07T14:07:13;4.30;;;2.35;;
9597;SDS011;4837;50.890;4.724;2023-05-07T14:09:40;5.10;;;2.30;;
9597;SDS011;4837;50.890;4.724;2023-05-07T14:12:06;3.00;;;2.20;;
9597;SDS011;4837;50.890;4.724;2023-05-07T14:14:32;5.70;;;4.75;;
9597;SDS011;4837;50.890;4.724;2023-05-07T14:16:58;4.03;;;2.30;;
9597;SDS011;4837;50.890;4.724;2023-05-07T14:19:24;2.63;;;2.10;;
9597;SDS011;4837;50.890;4.724;2023-05-07T14:21:50;2.90;;;1.90;;
9597;SDS011;4837;50.890;4.724;2023-05-07T14:24:17;4.50;;;2.20;;
9597;SDS011;4837;50.890;4.724;2023-05-07T14:26:43;3.70;;;2.35;;
9597;SDS011;4837;50.890;4.724;2023-05-07T14:29:10;3.42;;;2.00;;
9597;SDS011;4837;50.890;4.724;2023-05-07T14:31:36;4.68;;;2.20;;
9597;SDS011;4837;50.890;4.724;2023-05-07T14:34:02;2.63;;;2.17;;
9597;SDS011;4837;50.890;4.724;2023-05-07T14:36:29;3.63;;;2.17;;
9597;SDS011;4837;50.890;4.724;2023-05-07T14:38:56;4.00;;;2.42;;
9597;SDS011;4837;50.890;4.724;2023-05-07T14:41:24;3.28;;;1.88;;
9597;SDS011;4837;50.890;4.724;2023-05-07T14:43:50;4.47;;;2.28;;
9597;SDS011;4837;50.890;4.724;2023-05-07T14:46:19;3.72;;;2.60;;
9597;SDS011;4837;50.890;4.724;2023-05-07T14:48:46;3.72;;;2.30;;
9597;SDS011;4837;50.890;4.724;2023-05-07T14:51:12;4.03;;;2.50;;
9597;SDS011;4837;50.890;4.724;2023-05-07T14:53:40;4.00;;;2.60;;
9597;SDS011;4837;50.890;4.724;2023-05-07T14:56:06;6.03;;;2.42;;
9597;SDS011;4837;50.890;4.724;2023-05-07T14:58:32;5.28;;;2.50;;
9597;SDS011;4837;50.890;4.724;2023-05-07T15:00:59;4.20;;;2.25;;
9597;SDS011;4837;50.890;4.724;2023-05-07T15:03:25;3.63;;;2.20;;
9597;SDS011;4837;50.890;4.724;2023-05-07T15:05:51;3.03;;;2.70;;
9597;SDS011;4837;50.890;4.724;2023-05-07T15:08:18;3.60;;;2.42;;
9597;SDS011;4837;50.890;4.724;2023-05-07T15:10:44;5.60;;;2.63;;
9597;SDS011;4837;50.890;4.724;2023-05-07T15:13:11;3.63;;;2.30;;
9597;SDS011;4837;50.890;4.724;2023-05-07T15:15:41;3.67;;;2.55;;
9597;SDS011;4837;50.890;4.724;2023-05-07T15:18:08;7.18;;;3.13;;
9597;SDS011;4837;50.890;4.724;2023-05-07T15:20:35;5.43;;;2.78;;
9597;SDS011;4837;50.890;4.724;2023-05-07T15:23:01;5.10;;;2.67;;
9597;SDS011;4837;50.890;4.724;2023-05-07T15:25:30;3.50;;;2.53;;